Terminal Aerodrome Forecast
Issued by NWS

Home | Current Version | Previous Version | Text Only | Print | Product List | Glossary On
Versions: 1 2 3 4 5 6 7 8 9 10 11 12 13 14 15 16 17
000
FTUS46 KMTR 261100
TAFSJC
TAF
KSJC 261120Z 2612/2712 32005KT P6SM BKN015 OVC020
     FM261700 30006KT P6SM SCT018
     FM262000 31010KT P6SM FEW020
     FM262200 31013KT P6SM FEW022
     FM270500 32006KT P6SM FEW010 BKN018=

USA.gov is the U.S. government's official web portal to all federal, state and local government web resources and services.